Time;durP1;ratioP1;P1;durP2;ratioP2;P2;SDS_P1;SDS_P2;PMS_P1;PMS_P2;Temp;Humidity;BMP_temperature;BMP_pressure;BME280_temperature;BME280_humidity;BME280_pressure;Samples;Min_cycle;Max_cycle;Signal;HPM_P1;HPM_P2
2022/10/28 00:01:07;;;;;;;23.40;14.40;;;;;;;;;;5133562;27;20081;-78
2022/10/28 00:03:36;;;;;;;24.48;13.65;;;;;;;;;;5104724;28;20126;-78
2022/10/28 00:06:06;;;;;;;23.90;14.50;;;;;;;;;;5111691;28;20062;-78
2022/10/28 00:08:33;;;;;;;24.02;13.98;;;;;;;;;;5132999;28;20097;-77
2022/10/28 00:11:09;;;;;;;25.55;14.30;;;;;;;;;;5110320;28;20039;-78
2022/10/28 00:13:36;;;;;;;24.13;13.80;;;;;;;;;;5114102;28;20456;-78
2022/10/28 00:16:06;;;;;;;23.40;13.52;;;;;;;;;;5092512;28;20036;-78
2022/10/28 00:18:32;;;;;;;23.95;12.77;;;;;;;;;;5102751;28;20506;-78
2022/10/28 00:21:00;;;;;;;23.95;12.98;;;;;;;;;;5102706;28;20044;-78
2022/10/28 00:23:26;;;;;;;23.33;13.05;;;;;;;;;;5109748;28;20040;-77
2022/10/28 00:25:52;;;;;;;21.88;12.55;;;;;;;;;;5097377;28;20449;-78
2022/10/28 00:28:18;;;;;;;22.60;12.85;;;;;;;;;;5112297;28;20476;-78
2022/10/28 00:30:44;;;;;;;22.33;11.80;;;;;;;;;;5115606;28;20515;-78
2022/10/28 00:33:10;;;;;;;21.58;12.25;;;;;;;;;;5118008;27;20035;-78
2022/10/28 00:35:36;;;;;;;24.65;12.48;;;;;;;;;;5121280;27;20039;-78
2022/10/28 00:38:02;;;;;;;21.13;12.48;;;;;;;;;;5115957;28;20039;-78
2022/10/28 00:40:33;;;;;;;25.70;12.35;;;;;;;;;;5115154;28;20050;-78
2022/10/28 00:42:59;;;;;;;21.00;11.75;;;;;;;;;;5108540;27;20039;-78
2022/10/28 00:45:25;;;;;;;23.83;12.40;;;;;;;;;;5117137;27;20039;-78
2022/10/28 00:47:53;;;;;;;22.13;11.73;;;;;;;;;;5116195;28;20493;-78
2022/10/28 00:50:26;;;;;;;25.27;11.88;;;;;;;;;;5116249;28;20075;-78
2022/10/28 00:52:58;;;;;;;20.20;11.57;;;;;;;;;;5106562;27;20069;-78
2022/10/28 00:55:25;;;;;;;19.95;10.77;;;;;;;;;;5099076;28;20047;-78
2022/10/28 00:57:55;;;;;;;22.73;11.77;;;;;;;;;;5116062;28;20044;-78
2022/10/28 01:00:22;;;;;;;21.63;10.98;;;;;;;;;;5091733;28;20055;-78
2022/10/28 01:02:49;;;;;;;23.45;11.07;;;;;;;;;;5107228;28;20036;-78
2022/10/28 01:05:25;;;;;;;25.77;11.68;;;;;;;;;;5114869;27;20031;-78
2022/10/28 01:07:53;;;;;;;19.20;11.88;;;;;;;;;;5115097;28;20040;-78
2022/10/28 01:10:23;;;;;;;23.88;11.55;;;;;;;;;;5114673;28;20036;-78
2022/10/28 01:13:07;;;;;;;19.73;11.25;;;;;;;;;;5114820;28;20085;-78
2022/10/28 01:15:33;;;;;;;21.80;11.95;;;;;;;;;;5098747;27;20702;-78
2022/10/28 01:18:11;;;;;;;24.27;11.68;;;;;;;;;;5122756;27;20077;-78
2022/10/28 01:20:55;;;;;;;19.75;11.95;;;;;;;;;;5114446;28;20050;-78
2022/10/28 01:23:27;;;;;;;20.45;11.07;;;;;;;;;;5115186;27;20049;-78
2022/10/28 01:26:11;;;;;;;20.50;10.85;;;;;;;;;;5111031;27;20047;-79
2022/10/28 01:29:16;;;;;;;27.40;11.95;;;;;;;;;;5109839;28;20047;-79
2022/10/28 01:31:45;;;;;;;19.38;10.80;;;;;;;;;;5032640;28;20033;-78
2022/10/28 01:34:25;;;;;;;19.63;11.07;;;;;;;;;;5032449;28;20526;-78
2022/10/28 01:37:00;;;;;;;21.13;11.38;;;;;;;;;;5074165;27;20100;-78
2022/10/28 01:39:30;;;;;;;18.17;10.93;;;;;;;;;;5114184;27;20446;-78
2022/10/28 01:42:13;;;;;;;24.58;11.70;;;;;;;;;;5115130;28;20071;-78
2022/10/28 01:44:39;;;;;;;23.45;10.82;;;;;;;;;;5101280;28;20043;-78
2022/10/28 01:47:11;;;;;;;20.27;10.63;;;;;;;;;;5115034;27;20127;-78
2022/10/28 01:49:41;;;;;;;18.70;11.05;;;;;;;;;;5113952;28;20446;-78
2022/10/28 01:52:11;;;;;;;25.38;11.20;;;;;;;;;;5115112;28;20145;-78
2022/10/28 01:54:38;;;;;;;25.23;11.35;;;;;;;;;;5115662;28;20500;-78
2022/10/28 01:57:04;;;;;;;18.15;10.90;;;;;;;;;;5115913;27;20047;-78
2022/10/28 01:59:31;;;;;;;20.75;11.50;;;;;;;;;;5114925;27;20031;-78
2022/10/28 02:01:57;;;;;;;21.20;11.38;;;;;;;;;;5112283;28;20040;-78
2022/10/28 02:04:23;;;;;;;19.65;10.80;;;;;;;;;;5114059;28;20043;-79
2022/10/28 02:06:52;;;;;;;17.80;11.07;;;;;;;;;;5113724;27;20043;-78
2022/10/28 02:09:20;;;;;;;23.00;12.10;;;;;;;;;;5114351;27;20493;-78
2022/10/28 02:11:46;;;;;;;21.10;11.10;;;;;;;;;;5096115;28;20039;-78
2022/10/28 02:14:28;;;;;;;20.38;11.55;;;;;;;;;;5112858;28;20050;-78
2022/10/28 02:17:00;;;;;;;21.98;12.07;;;;;;;;;;5114967;27;20027;-79
2022/10/28 02:19:26;;;;;;;20.27;11.50;;;;;;;;;;5121961;27;20082;-78
2022/10/28 02:22:01;;;;;;;25.60;11.82;;;;;;;;;;5115735;27;20437;-78
2022/10/28 02:24:32;;;;;;;17.95;11.77;;;;;;;;;;5113728;28;20392;-79
2022/10/28 02:27:16;;;;;;;23.75;11.98;;;;;;;;;;5113231;28;20484;-78
2022/10/28 02:29:48;;;;;;;18.42;10.88;;;;;;;;;;5115280;27;20035;-78
2022/10/28 02:32:17;;;;;;;22.08;11.77;;;;;;;;;;5113715;28;20027;-78
2022/10/28 02:34:45;;;;;;;21.85;12.10;;;;;;;;;;5103973;28;20036;-78
2022/10/28 02:37:13;;;;;;;20.77;11.10;;;;;;;;;;5107752;28;20403;-79
2022/10/28 02:39:40;;;;;;;22.40;12.05;;;;;;;;;;5114676;27;20046;-79
2022/10/28 02:42:08;;;;;;;21.55;11.75;;;;;;;;;;5113245;28;20035;-78
2022/10/28 02:44:37;;;;;;;22.85;11.55;;;;;;;;;;5114426;28;20066;-78
2022/10/28 02:47:06;;;;;;;23.38;11.82;;;;;;;;;;5113300;28;20484;-78
2022/10/28 02:49:34;;;;;;;21.75;11.45;;;;;;;;;;5115153;27;20384;-78
2022/10/28 02:52:02;;;;;;;20.70;12.07;;;;;;;;;;5114204;27;20038;-78
2022/10/28 02:54:41;;;;;;;21.60;12.32;;;;;;;;;;5115351;28;20048;-78
2022/10/28 02:57:13;;;;;;;28.25;13.30;;;;;;;;;;5097060;28;20047;-78
2022/10/28 02:59:40;;;;;;;20.38;12.40;;;;;;;;;;5114899;28;20088;-78
2022/10/28 03:02:06;;;;;;;21.08;12.85;;;;;;;;;;5123523;27;20043;-78
2022/10/28 03:04:32;;;;;;;33.83;12.82;;;;;;;;;;5081932;28;20618;-78
2022/10/28 03:06:58;;;;;;;23.63;12.50;;;;;;;;;;5113674;28;20491;-67
2022/10/28 03:09:25;;;;;;;29.00;13.25;;;;;;;;;;5110226;27;20035;-68
2022/10/28 03:11:51;;;;;;;26.63;13.15;;;;;;;;;;5121091;27;20055;-68
2022/10/28 03:14:17;;;;;;;23.58;12.95;;;;;;;;;;5114959;27;20510;-68
2022/10/28 03:16:43;;;;;;;20.60;12.80;;;;;;;;;;5115404;27;20562;-68
2022/10/28 03:19:09;;;;;;;21.33;12.38;;;;;;;;;;5115328;27;20043;-68
2022/10/28 03:21:35;;;;;;;20.88;12.85;;;;;;;;;;5133058;27;20043;-67
2022/10/28 03:24:01;;;;;;;24.65;13.23;;;;;;;;;;5111234;27;20046;-67
2022/10/28 03:26:27;;;;;;;23.92;13.10;;;;;;;;;;5085230;28;20072;-67
2022/10/28 03:28:53;;;;;;;24.23;13.05;;;;;;;;;;5130355;27;20517;-68
2022/10/28 03:31:19;;;;;;;21.88;13.80;;;;;;;;;;5114227;27;20499;-67
2022/10/28 03:33:45;;;;;;;22.70;13.15;;;;;;;;;;5146668;27;20471;-68
2022/10/28 03:36:11;;;;;;;26.92;14.00;;;;;;;;;;5098267;27;20553;-67
2022/10/28 03:38:37;;;;;;;25.13;14.65;;;;;;;;;;5133045;27;20099;-67
2022/10/28 03:41:03;;;;;;;26.98;13.77;;;;;;;;;;5114379;27;20035;-78
2022/10/28 03:43:29;;;;;;;24.98;14.38;;;;;;;;;;5120506;27;20062;-78
2022/10/28 03:45:55;;;;;;;29.17;14.00;;;;;;;;;;5121782;27;20111;-78
2022/10/28 03:48:21;;;;;;;26.73;14.23;;;;;;;;;;5114923;27;20124;-78
2022/10/28 03:50:51;;;;;;;26.33;14.38;;;;;;;;;;5095561;28;20035;-78
2022/10/28 03:53:17;;;;;;;25.13;14.00;;;;;;;;;;5134382;27;20041;-78
2022/10/28 03:55:43;;;;;;;22.48;14.07;;;;;;;;;;5133293;27;20510;-78
2022/10/28 03:58:10;;;;;;;25.35;14.45;;;;;;;;;;5115274;28;20479;-78
2022/10/28 04:00:36;;;;;;;26.02;15.02;;;;;;;;;;5114190;28;20582;-78
2022/10/28 04:03:02;;;;;;;25.85;14.70;;;;;;;;;;5113212;27;20039;-67
2022/10/28 04:05:28;;;;;;;28.05;14.10;;;;;;;;;;5118817;27;20050;-68
2022/10/28 04:07:54;;;;;;;31.10;14.85;;;;;;;;;;5135589;27;20480;-67
2022/10/28 04:10:20;;;;;;;29.15;15.27;;;;;;;;;;5085362;28;20122;-68
2022/10/28 04:12:46;;;;;;;25.20;15.55;;;;;;;;;;5095512;27;20054;-68
2022/10/28 04:15:12;;;;;;;26.50;14.55;;;;;;;;;;5120366;27;20076;-68
2022/10/28 04:17:38;;;;;;;24.88;15.32;;;;;;;;;;5136978;27;20039;-68
2022/10/28 04:20:04;;;;;;;27.08;14.85;;;;;;;;;;5137049;27;20042;-68
2022/10/28 04:22:30;;;;;;;28.15;15.65;;;;;;;;;;5117826;27;20142;-68
2022/10/28 04:24:56;;;;;;;28.90;15.25;;;;;;;;;;5136533;27;20031;-68
2022/10/28 04:27:22;;;;;;;25.17;15.05;;;;;;;;;;5097531;28;20050;-68
2022/10/28 04:29:49;;;;;;;27.02;15.70;;;;;;;;;;5118768;27;20030;-68
2022/10/28 04:32:15;;;;;;;31.83;15.57;;;;;;;;;;5138053;27;20430;-67
2022/10/28 04:34:41;;;;;;;23.90;15.45;;;;;;;;;;5136400;27;20065;-67
2022/10/28 04:37:07;;;;;;;30.10;16.10;;;;;;;;;;5118485;27;20042;-68
2022/10/28 04:39:33;;;;;;;27.05;15.65;;;;;;;;;;5111625;28;20051;-67
2022/10/28 04:41:59;;;;;;;29.80;17.17;;;;;;;;;;5132576;27;20042;-68
2022/10/28 04:44:25;;;;;;;26.70;15.35;;;;;;;;;;5137874;27;20395;-77
2022/10/28 04:46:51;;;;;;;31.88;16.48;;;;;;;;;;5118545;27;20086;-77
2022/10/28 04:49:17;;;;;;;27.40;15.70;;;;;;;;;;5137019;27;20122;-77
2022/10/28 04:51:43;;;;;;;28.15;15.85;;;;;;;;;;5135770;27;20506;-77
2022/10/28 04:54:09;;;;;;;31.60;15.88;;;;;;;;;;5137707;27;20472;-67
2022/10/28 04:56:35;;;;;;;29.42;16.05;;;;;;;;;;5129752;27;20058;-67
2022/10/28 04:59:01;;;;;;;27.65;15.35;;;;;;;;;;5111247;27;20047;-67
2022/10/28 05:01:27;;;;;;;29.33;16.20;;;;;;;;;;5103506;27;20039;-67
2022/10/28 05:03:53;;;;;;;30.98;15.93;;;;;;;;;;5146981;27;20038;-67
2022/10/28 05:06:19;;;;;;;29.48;16.20;;;;;;;;;;5139771;27;20039;-67
2022/10/28 05:08:45;;;;;;;27.45;15.82;;;;;;;;;;5136049;27;20049;-67
2022/10/28 05:11:12;;;;;;;30.17;16.30;;;;;;;;;;5116610;27;20051;-67
2022/10/28 05:13:38;;;;;;;27.20;15.68;;;;;;;;;;5110694;27;20062;-67
2022/10/28 05:16:04;;;;;;;30.58;15.80;;;;;;;;;;5135111;27;20096;-67
2022/10/28 05:18:30;;;;;;;28.25;15.73;;;;;;;;;;5117435;27;20123;-67
2022/10/28 05:20:56;;;;;;;27.77;16.67;;;;;;;;;;5136409;27;20487;-67
2022/10/28 05:23:22;;;;;;;28.58;16.65;;;;;;;;;;5136134;27;20049;-67
2022/10/28 05:25:49;;;;;;;27.67;16.23;;;;;;;;;;5126604;27;20444;-68
2022/10/28 05:28:15;;;;;;;30.60;15.85;;;;;;;;;;5135613;27;20039;-67
2022/10/28 05:30:42;;;;;;;27.58;15.73;;;;;;;;;;5114015;27;20058;-68
2022/10/28 05:33:09;;;;;;;34.03;16.80;;;;;;;;;;5123956;27;20495;-68
2022/10/28 05:35:36;;;;;;;29.42;16.35;;;;;;;;;;5107035;28;20039;-67
2022/10/28 05:38:02;;;;;;;31.65;16.02;;;;;;;;;;5115698;27;20479;-68
2022/10/28 05:40:29;;;;;;;30.45;14.88;;;;;;;;;;5114892;28;20118;-67
2022/10/28 05:42:55;;;;;;;30.50;16.27;;;;;;;;;;5120377;27;20078;-67
2022/10/28 05:45:21;;;;;;;25.42;15.13;;;;;;;;;;5113283;28;20053;-67
2022/10/28 05:47:48;;;;;;;32.33;15.38;;;;;;;;;;5096254;28;20051;-67
2022/10/28 05:50:15;;;;;;;29.75;15.10;;;;;;;;;;5123026;27;20070;-67
2022/10/28 05:52:51;;;;;;;30.52;15.27;;;;;;;;;;5131892;27;20039;-67
2022/10/28 05:55:18;;;;;;;27.33;15.40;;;;;;;;;;5092745;27;20503;-67
2022/10/28 05:57:48;;;;;;;27.25;15.68;;;;;;;;;;5114378;28;20048;-67
2022/10/28 06:00:14;;;;;;;28.92;15.65;;;;;;;;;;5111028;27;20503;-67
2022/10/28 06:02:41;;;;;;;34.53;15.38;;;;;;;;;;5112650;27;20039;-67
2022/10/28 06:05:08;;;;;;;27.50;15.20;;;;;;;;;;5117913;27;20039;-67
2022/10/28 06:07:34;;;;;;;26.65;14.80;;;;;;;;;;5116237;27;20066;-67
2022/10/28 06:10:00;;;;;;;27.42;14.73;;;;;;;;;;5098543;28;20055;-67
2022/10/28 06:12:26;;;;;;;27.08;14.65;;;;;;;;;;5096904;28;20044;-67
2022/10/28 06:14:52;;;;;;;26.52;14.77;;;;;;;;;;5093692;28;20051;-67
2022/10/28 06:17:18;;;;;;;25.55;14.65;;;;;;;;;;5094055;28;20059;-67
2022/10/28 06:19:45;;;;;;;28.65;14.27;;;;;;;;;;5098961;27;20036;-67
2022/10/28 06:22:11;;;;;;;24.30;14.88;;;;;;;;;;5072045;28;20047;-67
2022/10/28 06:24:37;;;;;;;27.88;14.52;;;;;;;;;;5114060;28;20075;-67
2022/10/28 06:27:03;;;;;;;28.38;15.38;;;;;;;;;;5113688;27;20096;-66
2022/10/28 06:29:31;;;;;;;24.15;14.07;;;;;;;;;;5113912;27;20080;-67
2022/10/28 06:31:57;;;;;;;25.88;13.65;;;;;;;;;;5112565;28;20089;-67
2022/10/28 06:34:23;;;;;;;26.67;14.27;;;;;;;;;;5103157;27;20122;-67
2022/10/28 06:36:49;;;;;;;25.13;15.20;;;;;;;;;;5097870;27;20499;-67
2022/10/28 06:39:15;;;;;;;21.45;13.63;;;;;;;;;;5098706;27;20127;-67
2022/10/28 06:41:41;;;;;;;25.00;13.75;;;;;;;;;;5093069;28;20051;-67
2022/10/28 06:44:07;;;;;;;28.95;13.65;;;;;;;;;;5093351;28;20040;-67
2022/10/28 06:46:33;;;;;;;25.10;13.48;;;;;;;;;;5093501;28;20043;-67
2022/10/28 06:49:03;;;;;;;27.30;12.57;;;;;;;;;;5091233;28;20043;-77
2022/10/28 06:51:30;;;;;;;21.67;12.13;;;;;;;;;;5106460;28;20031;-78
2022/10/28 06:53:56;;;;;;;27.10;13.40;;;;;;;;;;5103367;27;20134;-77
2022/10/28 06:56:22;;;;;;;22.67;13.23;;;;;;;;;;5108887;28;20043;-78
2022/10/28 06:58:52;;;;;;;23.63;12.60;;;;;;;;;;5099305;28;20388;-77
2022/10/28 07:01:18;;;;;;;21.33;11.77;;;;;;;;;;5096144;28;20059;-78
2022/10/28 07:03:44;;;;;;;18.77;11.63;;;;;;;;;;5103950;27;20069;-78
2022/10/28 07:06:10;;;;;;;19.90;10.82;;;;;;;;;;5090295;28;20067;-78
2022/10/28 07:08:36;;;;;;;24.13;10.75;;;;;;;;;;5090390;28;20058;-77
2022/10/28 07:11:02;;;;;;;21.20;10.82;;;;;;;;;;5108959;27;20039;-77
2022/10/28 07:13:28;;;;;;;19.42;10.13;;;;;;;;;;5097780;27;20078;-77
2022/10/28 07:15:55;;;;;;;21.45;10.40;;;;;;;;;;5099783;27;20085;-77
2022/10/28 07:18:22;;;;;;;24.10;10.25;;;;;;;;;;5113455;28;20123;-77
2022/10/28 07:20:48;;;;;;;21.23;9.70;;;;;;;;;;5112787;27;20048;-78
2022/10/28 07:23:14;;;;;;;20.73;9.65;;;;;;;;;;5113751;27;20042;-78
2022/10/28 07:25:41;;;;;;;17.60;9.40;;;;;;;;;;5128357;27;20082;-77
2022/10/28 07:28:07;;;;;;;15.68;8.48;;;;;;;;;;5114914;27;20050;-78
2022/10/28 07:30:33;;;;;;;21.85;9.30;;;;;;;;;;5115096;27;20038;-78
2022/10/28 07:33:00;;;;;;;19.73;8.85;;;;;;;;;;5114271;27;20054;-67
2022/10/28 07:35:29;;;;;;;13.50;8.98;;;;;;;;;;5131118;27;20364;-68
2022/10/28 07:37:55;;;;;;;17.63;9.20;;;;;;;;;;5097359;28;20036;-68
2022/10/28 07:40:21;;;;;;;17.08;8.32;;;;;;;;;;5098027;27;20053;-68
2022/10/28 07:42:47;;;;;;;14.45;8.45;;;;;;;;;;5114007;27;20084;-68
2022/10/28 07:45:14;;;;;;;16.08;7.78;;;;;;;;;;5134623;27;20505;-68
2022/10/28 07:47:40;;;;;;;20.58;8.43;;;;;;;;;;5114707;27;20047;-69
2022/10/28 07:50:07;;;;;;;15.57;7.30;;;;;;;;;;5114089;27;20114;-78
2022/10/28 07:52:34;;;;;;;26.65;8.52;;;;;;;;;;5098394;28;20421;-78
2022/10/28 07:55:00;;;;;;;21.27;7.88;;;;;;;;;;5132918;27;20035;-68
2022/10/28 07:57:26;;;;;;;16.33;7.80;;;;;;;;;;5116314;27;20043;-68
2022/10/28 07:59:52;;;;;;;19.10;7.50;;;;;;;;;;5114555;28;20373;-68
2022/10/28 08:02:19;;;;;;;16.27;7.35;;;;;;;;;;5114126;28;20046;-68
2022/10/28 08:04:46;;;;;;;15.50;6.57;;;;;;;;;;5129261;27;20039;-68
2022/10/28 08:07:12;;;;;;;20.63;7.05;;;;;;;;;;5133952;27;20387;-68
2022/10/28 08:09:39;;;;;;;15.07;7.05;;;;;;;;;;5132842;27;20429;-68
2022/10/28 08:12:06;;;;;;;19.77;7.35;;;;;;;;;;5138397;27;20117;-69
2022/10/28 08:14:32;;;;;;;13.90;6.82;;;;;;;;;;5140670;27;20068;-68
2022/10/28 08:16:58;;;;;;;13.27;7.05;;;;;;;;;;5134209;27;20039;-69
2022/10/28 08:19:24;;;;;;;17.98;7.47;;;;;;;;;;5124462;28;20510;-68
2022/10/28 08:21:50;;;;;;;17.30;6.75;;;;;;;;;;5112920;27;20043;-68
2022/10/28 08:24:16;;;;;;;17.00;7.28;;;;;;;;;;5139960;27;20046;-68
2022/10/28 08:26:42;;;;;;;17.35;7.28;;;;;;;;;;5107321;28;20039;-68
2022/10/28 08:29:10;;;;;;;17.90;6.70;;;;;;;;;;5115095;28;20033;-68
2022/10/28 08:31:36;;;;;;;15.38;6.63;;;;;;;;;;5114629;28;20047;-68
2022/10/28 08:34:02;;;;;;;15.15;6.63;;;;;;;;;;5132288;27;20475;-68
2022/10/28 08:36:28;;;;;;;13.90;6.45;;;;;;;;;;5133015;28;20066;-68
2022/10/28 08:38:54;;;;;;;16.70;6.45;;;;;;;;;;5122312;27;20038;-68
2022/10/28 08:41:27;;;;;;;13.65;6.10;;;;;;;;;;5115189;28;20458;-79
2022/10/28 08:43:53;;;;;;;15.50;6.57;;;;;;;;;;5131588;27;20039;-79
2022/10/28 08:46:32;;;;;;;18.23;6.40;;;;;;;;;;5131311;28;20088;-79
2022/10/28 08:49:00;;;;;;;13.82;6.88;;;;;;;;;;5098490;27;20043;-79
2022/10/28 08:51:41;;;;;;;11.77;6.15;;;;;;;;;;5136701;27;20031;-79
2022/10/28 08:54:16;;;;;;;16.40;7.05;;;;;;;;;;5100992;27;20441;-79
2022/10/28 08:56:44;;;;;;;15.77;6.50;;;;;;;;;;5136797;27;20100;-79
2022/10/28 08:59:12;;;;;;;18.42;6.68;;;;;;;;;;5138063;27;20047;-78
2022/10/28 09:01:43;;;;;;;17.73;6.43;;;;;;;;;;5136572;27;20035;-78
2022/10/28 09:04:32;;;;;;;14.80;6.28;;;;;;;;;;5103352;27;20039;-79
2022/10/28 09:06:58;;;;;;;15.10;5.63;;;;;;;;;;5117481;27;20111;-78
2022/10/28 09:09:24;;;;;;;16.35;5.70;;;;;;;;;;5137419;27;20509;-78
2022/10/28 09:12:06;;;;;;;14.25;5.95;;;;;;;;;;5147074;27;20409;-78
2022/10/28 09:14:54;;;;;;;15.43;5.82;;;;;;;;;;5117716;27;20073;-79
2022/10/28 09:17:25;;;;;;;14.07;5.97;;;;;;;;;;5136186;27;20042;-78
2022/10/28 09:19:52;;;;;;;13.38;5.75;;;;;;;;;;5117869;27;20054;-78
2022/10/28 09:22:23;;;;;;;15.95;6.00;;;;;;;;;;5101740;27;20388;-78
2022/10/28 09:24:59;;;;;;;14.00;5.78;;;;;;;;;;5117961;27;20038;-78
2022/10/28 09:27:33;;;;;;;15.65;6.20;;;;;;;;;;5124216;27;20043;-78
2022/10/28 09:30:03;;;;;;;17.98;5.80;;;;;;;;;;5115792;27;20039;-78
2022/10/28 09:32:40;;;;;;;19.45;5.93;;;;;;;;;;5122439;27;20130;-78
2022/10/28 09:35:12;;;;;;;13.40;5.78;;;;;;;;;;5135962;27;20559;-79
2022/10/28 09:37:40;;;;;;;15.98;6.10;;;;;;;;;;5112421;27;20493;-78
2022/10/28 09:40:09;;;;;;;14.07;6.35;;;;;;;;;;5116978;27;20039;-79
2022/10/28 09:42:39;;;;;;;16.02;6.35;;;;;;;;;;5137039;27;20058;-78
2022/10/28 09:45:09;;;;;;;16.00;6.15;;;;;;;;;;5135525;27;20042;-78
2022/10/28 09:47:37;;;;;;;14.45;6.20;;;;;;;;;;5106718;28;20055;-78
2022/10/28 09:50:07;;;;;;;18.85;5.78;;;;;;;;;;5112602;27;20038;-79
2022/10/28 09:52:35;;;;;;;11.82;5.38;;;;;;;;;;5143035;27;20049;-79
2022/10/28 09:55:05;;;;;;;12.68;5.60;;;;;;;;;;5122248;27;20092;-79
2022/10/28 09:57:31;;;;;;;14.70;5.57;;;;;;;;;;5117266;27;20135;-79
2022/10/28 09:59:58;;;;;;;13.65;5.30;;;;;;;;;;5109200;27;20051;-79
2022/10/28 10:02:27;;;;;;;18.60;5.57;;;;;;;;;;5123274;27;20066;-79
2022/10/28 10:04:54;;;;;;;13.63;5.75;;;;;;;;;;5144854;27;20043;-79
2022/10/28 10:07:26;;;;;;;13.25;5.53;;;;;;;;;;5136536;27;20134;-79
2022/10/28 10:09:52;;;;;;;12.50;5.03;;;;;;;;;;5127031;27;20043;-79
2022/10/28 10:12:18;;;;;;;20.25;6.07;;;;;;;;;;5135232;27;20075;-79
2022/10/28 10:14:49;;;;;;;13.02;4.95;;;;;;;;;;5136329;27;20562;-79
2022/10/28 10:17:17;;;;;;;15.65;5.20;;;;;;;;;;5134742;27;20057;-80
2022/10/28 10:20:00;;;;;;;15.38;4.70;;;;;;;;;;5125487;27;20038;-80
2022/10/28 10:22:37;;;;;;;13.70;4.95;;;;;;;;;;5100912;28;20553;-80
2022/10/28 10:25:04;;;;;;;13.57;4.65;;;;;;;;;;5110032;27;20100;-80
2022/10/28 10:27:31;;;;;;;11.10;4.93;;;;;;;;;;5094180;27;20047;-80
2022/10/28 10:29:57;;;;;;;13.40;4.63;;;;;;;;;;5141028;27;20035;-80
2022/10/28 10:32:31;;;;;;;17.23;5.03;;;;;;;;;;5134684;27;20039;-80
2022/10/28 10:35:00;;;;;;;11.75;4.70;;;;;;;;;;5118224;27;20104;-80
2022/10/28 10:37:27;;;;;;;14.35;4.85;;;;;;;;;;5134576;27;20685;-80
2022/10/28 10:40:02;;;;;;;13.85;5.28;;;;;;;;;;5118511;27;20035;-80
2022/10/28 10:42:28;;;;;;;12.20;4.47;;;;;;;;;;5086428;28;20032;-80
2022/10/28 10:44:59;;;;;;;15.27;5.00;;;;;;;;;;5115558;27;20383;-80
2022/10/28 10:47:26;;;;;;;14.68;4.47;;;;;;;;;;5115952;27;20501;-80
2022/10/28 10:49:54;;;;;;;13.23;4.63;;;;;;;;;;5135373;27;20042;-80
2022/10/28 10:52:24;;;;;;;18.90;5.65;;;;;;;;;;5136792;27;20483;-80
2022/10/28 10:54:58;;;;;;;11.68;4.45;;;;;;;;;;5108057;27;20055;-80
2022/10/28 10:57:25;;;;;;;11.90;4.82;;;;;;;;;;5135890;27;20054;-80
2022/10/28 10:59:53;;;;;;;14.68;5.53;;;;;;;;;;5136652;27;20122;-80
2022/10/28 11:02:22;;;;;;;15.68;4.57;;;;;;;;;;5104163;27;20118;-80
2022/10/28 11:04:52;;;;;;;11.02;4.45;;;;;;;;;;5118662;27;20479;-80
2022/10/28 11:07:18;;;;;;;13.25;5.47;;;;;;;;;;5119195;27;20068;-80
2022/10/28 11:09:48;;;;;;;16.77;5.07;;;;;;;;;;5118410;27;20487;-80
2022/10/28 11:12:15;;;;;;;13.93;4.60;;;;;;;;;;5131979;27;20035;-69
2022/10/28 11:14:53;;;;;;;13.38;4.90;;;;;;;;;;5102305;27;20046;-69
2022/10/28 11:17:27;;;;;;;13.38;4.90;;;;;;;;;;5116013;27;20043;-68
2022/10/28 11:19:54;;;;;;;15.25;4.97;;;;;;;;;;5115226;27;20050;-68
2022/10/28 11:22:38;;;;;;;15.23;4.88;;;;;;;;;;5114448;27;20045;-68
2022/10/28 11:25:17;;;;;;;13.52;4.80;;;;;;;;;;5115607;27;20527;-68
2022/10/28 11:27:55;;;;;;;13.13;4.47;;;;;;;;;;5116037;27;20039;-69
2022/10/28 11:30:26;;;;;;;13.30;5.05;;;;;;;;;;5133495;27;20035;-68
2022/10/28 11:32:57;;;;;;;17.17;4.80;;;;;;;;;;5115297;27;20039;-68
2022/10/28 11:35:29;;;;;;;12.85;4.93;;;;;;;;;;5113570;27;20049;-68
2022/10/28 11:38:07;;;;;;;13.20;4.75;;;;;;;;;;5134362;27;20039;-68
2022/10/28 11:40:49;;;;;;;11.98;4.80;;;;;;;;;;5114918;27;20063;-69
2022/10/28 11:43:34;;;;;;;12.40;5.18;;;;;;;;;;5114094;27;20122;-68
2022/10/28 11:46:12;;;;;;;14.32;4.28;;;;;;;;;;5133472;27;20459;-68
2022/10/28 11:49:00;;;;;;;11.77;4.75;;;;;;;;;;5123492;27;20046;-68
2022/10/28 11:51:26;;;;;;;18.85;5.90;;;;;;;;;;5114417;27;20132;-69
2022/10/28 11:53:58;;;;;;;12.35;4.97;;;;;;;;;;5132921;27;20035;-69
2022/10/28 11:56:57;;;;;;;15.43;5.22;;;;;;;;;;5133271;27;20487;-68
2022/10/28 11:59:42;;;;;;;18.88;5.57;;;;;;;;;;5062035;28;20551;-69
2022/10/28 12:02:26;;;;;;;13.10;4.70;;;;;;;;;;5115045;28;20403;-80
2022/10/28 12:05:12;;;;;;;15.68;5.05;;;;;;;;;;5113813;28;20138;-80
2022/10/28 12:07:56;;;;;;;15.73;5.40;;;;;;;;;;5093453;28;20048;-80
2022/10/28 12:10:31;;;;;;;15.23;5.45;;;;;;;;;;5142832;27;20414;-80
2022/10/28 12:13:13;;;;;;;18.50;5.45;;;;;;;;;;5102072;28;20509;-80
2022/10/28 12:15:59;;;;;;;17.17;5.20;;;;;;;;;;5097949;28;20400;-80
2022/10/28 12:18:40;;;;;;;12.95;5.28;;;;;;;;;;5132259;28;20122;-80
2022/10/28 12:21:25;;;;;;;17.02;5.80;;;;;;;;;;5115692;28;20087;-80
2022/10/28 12:23:52;;;;;;;17.98;5.57;;;;;;;;;;5114760;27;20050;-80
2022/10/28 12:26:20;;;;;;;21.88;6.25;;;;;;;;;;5116587;27;20039;-81
2022/10/28 12:28:53;;;;;;;13.85;5.40;;;;;;;;;;5106891;28;20035;-80
2022/10/28 12:31:22;;;;;;;16.05;5.97;;;;;;;;;;5118191;27;20114;-81
2022/10/28 12:33:50;;;;;;;13.90;5.75;;;;;;;;;;5137261;27;20164;-81
2022/10/28 12:36:27;;;;;;;17.85;6.35;;;;;;;;;;5112765;27;20041;-80
2022/10/28 12:39:05;;;;;;;12.45;5.28;;;;;;;;;;5118064;27;20039;-80
2022/10/28 12:41:43;;;;;;;15.07;5.38;;;;;;;;;;5142619;27;20468;-80
2022/10/28 12:44:12;;;;;;;15.85;5.78;;;;;;;;;;5137166;27;20450;-81
2022/10/28 12:46:47;;;;;;;12.82;5.38;;;;;;;;;;5108660;27;20502;-81
2022/10/28 12:49:31;;;;;;;16.27;5.70;;;;;;;;;;5137235;27;20376;-80
2022/10/28 12:52:02;;;;;;;13.75;5.00;;;;;;;;;;5111815;27;20083;-81
2022/10/28 12:54:36;;;;;;;14.38;5.40;;;;;;;;;;5117531;27;20046;-81
2022/10/28 12:57:11;;;;;;;16.08;5.80;;;;;;;;;;5118203;27;20045;-81
2022/10/28 12:59:41;;;;;;;20.65;5.55;;;;;;;;;;5136590;27;20169;-80
2022/10/28 13:02:16;;;;;;;15.55;5.47;;;;;;;;;;5115133;27;20043;-80
2022/10/28 13:04:42;;;;;;;14.97;5.20;;;;;;;;;;5124059;27;20031;-80
2022/10/28 13:07:20;;;;;;;14.82;5.50;;;;;;;;;;5133118;27;20050;-81
2022/10/28 13:09:51;;;;;;;20.67;5.45;;;;;;;;;;5097164;28;20061;-78
2022/10/28 13:12:24;;;;;;;14.77;5.18;;;;;;;;;;5102737;27;20114;-74
2022/10/28 13:14:57;;;;;;;17.63;5.40;;;;;;;;;;5101363;27;20613;-80
2022/10/28 13:17:38;;;;;;;16.50;5.38;;;;;;;;;;5107649;27;20045;-68
2022/10/28 13:20:30;;;;;;;12.68;4.95;;;;;;;;;;5127351;27;20058;-68
2022/10/28 13:23:18;;;;;;;15.77;4.97;;;;;;;;;;5090287;28;20510;-68
2022/10/28 13:25:56;;;;;;;13.98;4.90;;;;;;;;;;5111347;28;20047;-68
2022/10/28 13:28:23;;;;;;;15.48;5.35;;;;;;;;;;5103898;27;20054;-69
2022/10/28 13:30:57;;;;;;;13.15;5.13;;;;;;;;;;5113222;28;20507;-68
2022/10/28 13:33:24;;;;;;;13.63;5.05;;;;;;;;;;5123684;27;20176;-68
2022/10/28 13:35:51;;;;;;;16.75;5.68;;;;;;;;;;5099196;28;20524;-68
2022/10/28 13:38:21;;;;;;;17.10;5.55;;;;;;;;;;5085887;27;20047;-68
2022/10/28 13:40:47;;;;;;;11.90;5.22;;;;;;;;;;5119570;27;20118;-68
2022/10/28 13:43:19;;;;;;;13.20;5.32;;;;;;;;;;5115070;28;20036;-68
2022/10/28 13:45:53;;;;;;;21.27;6.00;;;;;;;;;;5096564;28;20492;-68
2022/10/28 13:48:28;;;;;;;16.08;5.55;;;;;;;;;;5109890;27;20053;-68
2022/10/28 13:51:09;;;;;;;15.38;6.20;;;;;;;;;;5105177;28;20031;-68
2022/10/28 13:53:39;;;;;;;15.52;5.72;;;;;;;;;;5095107;27;20395;-68
2022/10/28 13:56:24;;;;;;;18.75;6.07;;;;;;;;;;5108702;28;20118;-68
2022/10/28 13:58:54;;;;;;;19.90;6.20;;;;;;;;;;5130841;27;20046;-68
2022/10/28 14:01:39;;;;;;;16.83;6.93;;;;;;;;;;5134003;27;20093;-68
2022/10/28 14:04:05;;;;;;;19.85;6.90;;;;;;;;;;5137059;27;20383;-68
2022/10/28 14:06:33;;;;;;;17.58;7.43;;;;;;;;;;5134955;27;20100;-68
2022/10/28 14:08:59;;;;;;;23.15;6.13;;;;;;;;;;5104648;27;20035;-69
2022/10/28 14:11:31;;;;;;;15.25;5.50;;;;;;;;;;5116346;27;20047;-69
2022/10/28 14:14:01;;;;;;;16.52;5.40;;;;;;;;;;5122918;27;20437;-67
2022/10/28 14:16:30;;;;;;;18.92;5.53;;;;;;;;;;5095169;27;20050;-67
2022/10/28 14:19:05;;;;;;;19.55;5.93;;;;;;;;;;5115111;27;20125;-67
2022/10/28 14:21:50;;;;;;;15.90;5.18;;;;;;;;;;5112223;27;20584;-67
2022/10/28 14:24:37;;;;;;;15.97;5.77;;;;;;;;;;5126827;27;20123;-68
2022/10/28 14:27:11;;;;;;;17.48;5.05;;;;;;;;;;5114581;27;20043;-68
2022/10/28 14:29:49;;;;;;;20.40;4.93;;;;;;;;;;5107601;27;20047;-67
2022/10/28 14:32:31;;;;;;;18.42;5.43;;;;;;;;;;5126615;27;20043;-68
2022/10/28 14:35:03;;;;;;;17.70;5.43;;;;;;;;;;5123134;27;20046;-69
2022/10/28 14:37:35;;;;;;;16.17;5.72;;;;;;;;;;5109919;27;20369;-68
2022/10/28 14:40:06;;;;;;;15.15;5.20;;;;;;;;;;5127640;27;20066;-80